sensor_id;sensor_type;location;lat;lon;timestamp;pressure;altitude;pressure_sealevel;temperature;humidity
39243;BME280;29823;47.404;8.566;2023-04-09T00:00:28;96994.38;;;5.86;100.00
39243;BME280;29823;47.404;8.566;2023-04-09T00:02:56;96984.06;;;5.76;100.00
39243;BME280;29823;47.404;8.566;2023-04-09T00:05:24;96981.22;;;5.78;100.00
39243;BME280;29823;47.404;8.566;2023-04-09T00:07:52;96990.09;;;5.49;100.00
39243;BME280;29823;47.404;8.566;2023-04-09T00:10:20;96988.56;;;5.40;100.00
39243;BME280;29823;47.404;8.566;2023-04-09T00:12:49;96983.75;;;5.29;100.00
39243;BME280;29823;47.404;8.566;2023-04-09T00:15:17;96958.13;;;5.01;100.00
39243;BME280;29823;47.404;8.566;2023-04-09T00:17:56;96994.50;;;5.21;100.00
39243;BME280;29823;47.404;8.566;2023-04-09T00:20:24;96997.13;;;5.21;100.00
39243;BME280;29823;47.404;8.566;2023-04-09T00:22:52;96981.16;;;5.15;100.00
39243;BME280;29823;47.404;8.566;2023-04-09T00:25:21;96993.50;;;5.08;100.00
39243;BME280;29823;47.404;8.566;2023-04-09T00:27:51;96989.16;;;4.86;100.00
39243;BME280;29823;47.404;8.566;2023-04-09T00:30:19;96993.34;;;4.80;100.00
39243;BME280;29823;47.404;8.566;2023-04-09T00:32:47;96988.59;;;4.90;100.00
39243;BME280;29823;47.404;8.566;2023-04-09T00:35:14;96991.72;;;4.79;100.00
39243;BME280;29823;47.404;8.566;2023-04-09T00:37:43;96978.47;;;4.65;100.00
39243;BME280;29823;47.404;8.566;2023-04-09T00:40:10;96986.03;;;4.68;100.00
39243;BME280;29823;47.404;8.566;2023-04-09T00:42:38;96984.50;;;4.73;100.00
39243;BME280;29823;47.404;8.566;2023-04-09T00:45:09;96992.25;;;4.89;100.00
39243;BME280;29823;47.404;8.566;2023-04-09T00:47:37;96981.41;;;4.70;100.00
39243;BME280;29823;47.404;8.566;2023-04-09T00:50:05;96988.97;;;4.58;100.00
39243;BME280;29823;47.404;8.566;2023-04-09T00:52:33;96990.88;;;4.64;100.00
39243;BME280;29823;47.404;8.566;2023-04-09T00:55:03;96989.81;;;4.73;100.00
39243;BME280;29823;47.404;8.566;2023-04-09T00:57:31;96987.16;;;4.73;100.00
39243;BME280;29823;47.404;8.566;2023-04-09T00:59:59;96981.75;;;4.67;100.00
39243;BME280;29823;47.404;8.566;2023-04-09T01:02:29;96964.56;;;4.63;100.00
39243;BME280;29823;47.404;8.566;2023-04-09T01:04:57;96981.94;;;4.65;100.00
39243;BME280;29823;47.404;8.566;2023-04-09T01:07:33;96982.94;;;4.64;100.00
39243;BME280;29823;47.404;8.566;2023-04-09T01:10:10;96986.13;;;4.74;100.00
39243;BME280;29823;47.404;8.566;2023-04-09T01:12:47;96986.41;;;4.79;100.00
39243;BME280;29823;47.404;8.566;2023-04-09T01:15:24;96978.75;;;4.70;100.00
39243;BME280;29823;47.404;8.566;2023-04-09T01:17:55;96977.38;;;4.59;100.00
39243;BME280;29823;47.404;8.566;2023-04-09T01:20:31;96972.72;;;4.61;100.00
39243;BME280;29823;47.404;8.566;2023-04-09T01:23:15;96983.78;;;4.50;100.00
39243;BME280;29823;47.404;8.566;2023-04-09T01:25:55;96976.81;;;4.49;100.00
39243;BME280;29823;47.404;8.566;2023-04-09T01:28:30;96982.28;;;4.33;100.00
39243;BME280;29823;47.404;8.566;2023-04-09T01:31:03;96975.28;;;4.40;100.00
39243;BME280;29823;47.404;8.566;2023-04-09T01:33:34;96980.94;;;4.37;100.00
39243;BME280;29823;47.404;8.566;2023-04-09T01:36:05;96968.41;;;4.17;100.00
39243;BME280;29823;47.404;8.566;2023-04-09T01:38:35;96981.81;;;4.15;100.00
39243;BME280;29823;47.404;8.566;2023-04-09T01:41:03;96979.72;;;4.25;100.00
39243;BME280;29823;47.404;8.566;2023-04-09T01:43:34;96981.75;;;4.23;100.00
39243;BME280;29823;47.404;8.566;2023-04-09T01:46:04;96983.00;;;4.27;100.00
39243;BME280;29823;47.404;8.566;2023-04-09T01:48:32;96986.59;;;4.34;100.00
39243;BME280;29823;47.404;8.566;2023-04-09T01:51:00;96982.28;;;4.33;100.00
39243;BME280;29823;47.404;8.566;2023-04-09T01:53:28;96982.66;;;4.30;100.00
39243;BME280;29823;47.404;8.566;2023-04-09T01:55:58;96977.19;;;4.32;100.00
39243;BME280;29823;47.404;8.566;2023-04-09T01:58:26;96985.03;;;4.40;100.00
39243;BME280;29823;47.404;8.566;2023-04-09T02:00:59;96972.97;;;4.37;100.00
39243;BME280;29823;47.404;8.566;2023-04-09T02:03:32;96977.38;;;4.59;100.00
39243;BME280;29823;47.404;8.566;2023-04-09T02:06:08;96980.69;;;4.61;100.00
39243;BME280;29823;47.404;8.566;2023-04-09T02:08:43;96984.22;;;4.68;100.00
39243;BME280;29823;47.404;8.566;2023-04-09T02:11:13;96982.75;;;4.80;100.00
39243;BME280;29823;47.404;8.566;2023-04-09T02:13:42;96987.47;;;4.85;100.00
39243;BME280;29823;47.404;8.566;2023-04-09T02:16:12;96976.09;;;4.84;100.00
39243;BME280;29823;47.404;8.566;2023-04-09T02:18:42;96984.41;;;4.96;100.00
39243;BME280;29823;47.404;8.566;2023-04-09T02:21:10;96988.84;;;5.10;100.00
39243;BME280;29823;47.404;8.566;2023-04-09T02:23:39;96985.53;;;5.22;100.00
39243;BME280;29823;47.404;8.566;2023-04-09T02:26:07;96976.47;;;5.31;100.00
39243;BME280;29823;47.404;8.566;2023-04-09T02:28:34;96971.03;;;5.39;100.00
39243;BME280;29823;47.404;8.566;2023-04-09T02:31:02;96974.19;;;5.49;100.00
39243;BME280;29823;47.404;8.566;2023-04-09T02:33:32;96968.06;;;5.49;100.00
39243;BME280;29823;47.404;8.566;2023-04-09T02:36:00;96969.72;;;5.50;100.00
39243;BME280;29823;47.404;8.566;2023-04-09T02:38:28;96972.16;;;5.51;100.00
39243;BME280;29823;47.404;8.566;2023-04-09T02:40:56;96971.53;;;5.49;100.00
39243;BME280;29823;47.404;8.566;2023-04-09T02:43:23;96961.69;;;5.43;100.00
39243;BME280;29823;47.404;8.566;2023-04-09T02:45:51;96965.72;;;5.39;100.00
39243;BME280;29823;47.404;8.566;2023-04-09T02:48:19;96957.69;;;5.33;100.00
39243;BME280;29823;47.404;8.566;2023-04-09T02:50:48;96970.84;;;5.41;100.00
39243;BME280;29823;47.404;8.566;2023-04-09T02:53:16;96956.13;;;5.38;100.00
39243;BME280;29823;47.404;8.566;2023-04-09T02:55:44;96970.41;;;5.37;100.00
39243;BME280;29823;47.404;8.566;2023-04-09T02:58:12;96955.53;;;5.22;100.00
39243;BME280;29823;47.404;8.566;2023-04-09T03:00:40;96962.16;;;5.11;100.00
39243;BME280;29823;47.404;8.566;2023-04-09T03:03:07;96962.50;;;5.08;100.00
39243;BME280;29823;47.404;8.566;2023-04-09T03:05:36;96959.50;;;5.11;100.00
39243;BME280;29823;47.404;8.566;2023-04-09T03:08:05;96955.75;;;5.06;100.00
39243;BME280;29823;47.404;8.566;2023-04-09T03:10:33;96953.25;;;4.83;100.00
39243;BME280;29823;47.404;8.566;2023-04-09T03:13:01;96958.28;;;4.78;100.00
39243;BME280;29823;47.404;8.566;2023-04-09T03:15:29;96965.56;;;4.76;100.00
39243;BME280;29823;47.404;8.566;2023-04-09T03:17:56;96958.81;;;4.88;100.00
39243;BME280;29823;47.404;8.566;2023-04-09T03:20:24;96955.59;;;4.93;100.00
39243;BME280;29823;47.404;8.566;2023-04-09T03:22:52;96951.19;;;5.00;100.00
39243;BME280;29823;47.404;8.566;2023-04-09T03:25:21;96948.63;;;5.06;100.00
39243;BME280;29823;47.404;8.566;2023-04-09T03:27:49;96936.50;;;4.97;100.00
39243;BME280;29823;47.404;8.566;2023-04-09T03:30:17;96951.59;;;4.97;100.00
39243;BME280;29823;47.404;8.566;2023-04-09T03:32:45;96961.38;;;4.82;100.00
39243;BME280;29823;47.404;8.566;2023-04-09T03:35:12;96958.72;;;4.82;100.00
39243;BME280;29823;47.404;8.566;2023-04-09T03:37:40;96956.09;;;4.82;100.00
39243;BME280;29823;47.404;8.566;2023-04-09T03:40:09;96953.34;;;4.75;100.00
39243;BME280;29823;47.404;8.566;2023-04-09T03:42:41;96953.19;;;4.62;100.00
39243;BME280;29823;47.404;8.566;2023-04-09T03:45:09;96954.53;;;4.58;100.00
39243;BME280;29823;47.404;8.566;2023-04-09T03:47:37;96961.56;;;4.66;100.00
39243;BME280;29823;47.404;8.566;2023-04-09T03:50:05;96947.88;;;4.62;100.00
39243;BME280;29823;47.404;8.566;2023-04-09T03:52:33;96958.94;;;4.66;100.00
39243;BME280;29823;47.404;8.566;2023-04-09T03:55:02;96959.38;;;4.69;100.00
39243;BME280;29823;47.404;8.566;2023-04-09T03:57:30;96953.47;;;4.67;100.00
39243;BME280;29823;47.404;8.566;2023-04-09T03:59:59;96957.84;;;4.75;100.00
39243;BME280;29823;47.404;8.566;2023-04-09T04:02:27;96946.75;;;4.71;100.00
39243;BME280;29823;47.404;8.566;2023-04-09T04:04:59;96959.03;;;4.72;100.00
39243;BME280;29823;47.404;8.566;2023-04-09T04:07:27;96940.97;;;4.61;100.00
39243;BME280;29823;47.404;8.566;2023-04-09T04:09:55;96954.72;;;4.57;100.00
39243;BME280;29823;47.404;8.566;2023-04-09T04:12:23;96949.72;;;4.47;100.00
39243;BME280;29823;47.404;8.566;2023-04-09T04:14:51;96948.06;;;4.46;100.00
39243;BME280;29823;47.404;8.566;2023-04-09T04:17:20;96956.38;;;4.43;100.00
39243;BME280;29823;47.404;8.566;2023-04-09T04:19:48;96960.13;;;4.34;100.00
39243;BME280;29823;47.404;8.566;2023-04-09T04:22:16;96961.22;;;4.25;100.00
39243;BME280;29823;47.404;8.566;2023-04-09T04:24:44;96963.66;;;4.12;100.00
39243;BME280;29823;47.404;8.566;2023-04-09T04:27:11;96957.44;;;4.05;100.00
39243;BME280;29823;47.404;8.566;2023-04-09T04:29:39;96960.25;;;4.04;100.00
39243;BME280;29823;47.404;8.566;2023-04-09T04:32:07;96967.22;;;4.19;100.00
39243;BME280;29823;47.404;8.566;2023-04-09T04:34:37;96965.75;;;4.02;100.00
39243;BME280;29823;47.404;8.566;2023-04-09T04:37:04;96974.94;;;4.06;100.00
39243;BME280;29823;47.404;8.566;2023-04-09T04:39:32;96973.41;;;3.97;100.00
39243;BME280;29823;47.404;8.566;2023-04-09T04:42:00;96973.75;;;3.94;100.00
39243;BME280;29823;47.404;8.566;2023-04-09T04:44:27;96979.75;;;3.88;100.00
39243;BME280;29823;47.404;8.566;2023-04-09T04:46:55;96981.97;;;3.99;100.00
39243;BME280;29823;47.404;8.566;2023-04-09T04:49:23;96980.97;;;4.00;100.00
39243;BME280;29823;47.404;8.566;2023-04-09T04:51:52;96969.34;;;3.87;100.00
39243;BME280;29823;47.404;8.566;2023-04-09T04:54:20;96981.66;;;3.80;100.00
39243;BME280;29823;47.404;8.566;2023-04-09T04:56:48;96984.16;;;3.73;100.00
39243;BME280;29823;47.404;8.566;2023-04-09T04:59:16;96984.53;;;3.70;100.00
39243;BME280;29823;47.404;8.566;2023-04-09T05:01:43;96982.41;;;3.66;100.00
39243;BME280;29823;47.404;8.566;2023-04-09T05:04:12;96979.84;;;3.80;100.00
39243;BME280;29823;47.404;8.566;2023-04-09T05:06:39;96970.44;;;3.78;100.00
39243;BME280;29823;47.404;8.566;2023-04-09T05:09:08;96984.69;;;3.91;100.00
39243;BME280;29823;47.404;8.566;2023-04-09T05:11:37;96990.28;;;3.96;100.00
39243;BME280;29823;47.404;8.566;2023-04-09T05:14:04;96985.97;;;3.95;100.00
39243;BME280;29823;47.404;8.566;2023-04-09T05:16:32;96989.63;;;3.94;100.00
39243;BME280;29823;47.404;8.566;2023-04-09T05:19:00;96989.91;;;3.99;100.00
39243;BME280;29823;47.404;8.566;2023-04-09T05:21:28;97000.44;;;4.07;100.00
39243;BME280;29823;47.404;8.566;2023-04-09T05:23:57;97002.69;;;4.10;100.00
39243;BME280;29823;47.404;8.566;2023-04-09T05:26:26;96997.34;;;4.18;100.00
39243;BME280;29823;47.404;8.566;2023-04-09T05:28:54;96988.13;;;4.29;100.00
39243;BME280;29823;47.404;8.566;2023-04-09T05:31:22;96981.38;;;4.41;100.00
39243;BME280;29823;47.404;8.566;2023-04-09T05:33:50;96983.31;;;4.61;100.00
39243;BME280;29823;47.404;8.566;2023-04-09T05:36:18;96981.84;;;4.73;100.00
39243;BME280;29823;47.404;8.566;2023-04-09T05:38:46;96989.34;;;4.84;100.00
39243;BME280;29823;47.404;8.566;2023-04-09T05:41:14;96981.28;;;4.92;100.00
39243;BME280;29823;47.404;8.566;2023-04-09T05:43:44;96978.34;;;5.02;100.00
39243;BME280;29823;47.404;8.566;2023-04-09T05:46:11;96963.22;;;5.17;100.00
39243;BME280;29823;47.404;8.566;2023-04-09T05:48:39;96975.38;;;5.26;100.00
39243;BME280;29823;47.404;8.566;2023-04-09T05:51:08;96970.75;;;5.34;100.00
39243;BME280;29823;47.404;8.566;2023-04-09T05:53:36;96969.91;;;5.48;100.00
39243;BME280;29823;47.404;8.566;2023-04-09T05:56:12;96971.03;;;5.60;100.00
39243;BME280;29823;47.404;8.566;2023-04-09T05:58:40;96966.25;;;5.70;100.00
39243;BME280;29823;47.404;8.566;2023-04-09T06:01:10;96967.22;;;5.84;100.00
39243;BME280;29823;47.404;8.566;2023-04-09T06:03:37;96965.84;;;5.88;100.00
39243;BME280;29823;47.404;8.566;2023-04-09T06:06:06;96964.56;;;6.11;100.00
39243;BME280;29823;47.404;8.566;2023-04-09T06:08:34;96974.91;;;6.27;100.00
39243;BME280;29823;47.404;8.566;2023-04-09T06:11:02;96969.09;;;6.45;100.00
39243;BME280;29823;47.404;8.566;2023-04-09T06:13:30;96977.84;;;6.66;100.00
39243;BME280;29823;47.404;8.566;2023-04-09T06:15:57;96970.69;;;6.67;100.00
39243;BME280;29823;47.404;8.566;2023-04-09T06:18:27;96968.72;;;6.82;100.00
39243;BME280;29823;47.404;8.566;2023-04-09T06:21:00;96965.91;;;6.90;100.00
39243;BME280;29823;47.404;8.566;2023-04-09T06:23:28;96972.91;;;7.04;100.00
39243;BME280;29823;47.404;8.566;2023-04-09T06:25:57;96978.75;;;7.33;100.00
39243;BME280;29823;47.404;8.566;2023-04-09T06:28:24;96971.22;;;7.43;100.00
39243;BME280;29823;47.404;8.566;2023-04-09T06:30:52;96971.81;;;7.45;100.00
39243;BME280;29823;47.404;8.566;2023-04-09T06:33:21;96970.44;;;7.62;100.00
39243;BME280;29823;47.404;8.566;2023-04-09T06:35:50;96966.28;;;7.40;100.00
39243;BME280;29823;47.404;8.566;2023-04-09T06:38:18;96955.53;;;7.87;100.00
39243;BME280;29823;47.404;8.566;2023-04-09T06:40:45;96973.34;;;7.93;100.00
39243;BME280;29823;47.404;8.566;2023-04-09T06:43:13;96978.13;;;8.37;100.00
39243;BME280;29823;47.404;8.566;2023-04-09T06:45:41;96970.91;;;8.37;100.00
39243;BME280;29823;47.404;8.566;2023-04-09T06:48:09;96962.50;;;8.14;100.00
39243;BME280;29823;47.404;8.566;2023-04-09T06:50:37;96982.16;;;8.07;100.00
39243;BME280;29823;47.404;8.566;2023-04-09T06:53:07;96982.00;;;8.34;100.00
39243;BME280;29823;47.404;8.566;2023-04-09T06:55:35;96984.63;;;7.95;100.00
39243;BME280;29823;47.404;8.566;2023-04-09T06:58:02;96984.84;;;7.94;100.00
39243;BME280;29823;47.404;8.566;2023-04-09T07:00:31;96988.66;;;7.65;100.00
39243;BME280;29823;47.404;8.566;2023-04-09T07:02:58;96988.69;;;7.78;100.00
39243;BME280;29823;47.404;8.566;2023-04-09T07:05:27;96987.06;;;7.77;100.00
39243;BME280;29823;47.404;8.566;2023-04-09T07:07:54;96985.91;;;8.25;100.00
39243;BME280;29823;47.404;8.566;2023-04-09T07:10:23;96977.72;;;8.33;100.00
39243;BME280;29823;47.404;8.566;2023-04-09T07:12:51;96978.91;;;8.11;100.00
39243;BME280;29823;47.404;8.566;2023-04-09T07:15:19;96979.66;;;7.66;100.00
39243;BME280;29823;47.404;8.566;2023-04-09T07:17:47;96984.00;;;7.80;100.00
39243;BME280;29823;47.404;8.566;2023-04-09T07:20:15;96989.13;;;7.88;100.00
39243;BME280;29823;47.404;8.566;2023-04-09T07:22:43;96973.53;;;7.79;100.00
39243;BME280;29823;47.404;8.566;2023-04-09T07:25:10;96982.16;;;7.74;100.00
39243;BME280;29823;47.404;8.566;2023-04-09T07:27:40;96979.47;;;7.68;100.00
39243;BME280;29823;47.404;8.566;2023-04-09T07:30:08;96975.75;;;7.56;100.00
39243;BME280;29823;47.404;8.566;2023-04-09T07:32:37;96978.84;;;7.72;100.00
39243;BME280;29823;47.404;8.566;2023-04-09T07:35:06;96978.06;;;8.04;100.00
39243;BME280;29823;47.404;8.566;2023-04-09T07:37:35;96977.25;;;8.10;100.00
39243;BME280;29823;47.404;8.566;2023-04-09T07:40:03;96984.25;;;8.11;100.00
39243;BME280;29823;47.404;8.566;2023-04-09T07:42:31;96979.34;;;8.34;100.00
39243;BME280;29823;47.404;8.566;2023-04-09T07:45:00;96980.13;;;8.74;100.00
39243;BME280;29823;47.404;8.566;2023-04-09T07:47:28;96979.03;;;9.82;100.00
39243;BME280;29823;47.404;8.566;2023-04-09T07:49:57;96979.56;;;10.53;100.00
39243;BME280;29823;47.404;8.566;2023-04-09T07:52:25;96978.66;;;11.19;100.00
39243;BME280;29823;47.404;8.566;2023-04-09T07:54:53;96978.16;;;11.76;95.28
39243;BME280;29823;47.404;8.566;2023-04-09T07:57:20;96980.81;;;9.95;100.00
39243;BME280;29823;47.404;8.566;2023-04-09T07:59:48;96988.28;;;9.42;100.00
39243;BME280;29823;47.404;8.566;2023-04-09T08:02:17;96978.94;;;10.26;100.00
39243;BME280;29823;47.404;8.566;2023-04-09T08:04:46;96986.00;;;10.45;100.00
39243;BME280;29823;47.404;8.566;2023-04-09T08:07:14;96985.31;;;10.25;100.00
39243;BME280;29823;47.404;8.566;2023-04-09T08:09:41;96993.50;;;9.68;100.00
39243;BME280;29823;47.404;8.566;2023-04-09T08:12:09;96987.16;;;10.00;100.00
39243;BME280;29823;47.404;8.566;2023-04-09T08:14:37;96983.78;;;9.80;100.00
39243;BME280;29823;47.404;8.566;2023-04-09T08:17:05;96985.94;;;9.15;100.00
39243;BME280;29823;47.404;8.566;2023-04-09T08:19:34;96983.44;;;10.01;100.00
39243;BME280;29823;47.404;8.566;2023-04-09T08:22:04;96971.59;;;10.22;100.00
39243;BME280;29823;47.404;8.566;2023-04-09T08:24:31;96982.03;;;10.72;99.48
39243;BME280;29823;47.404;8.566;2023-04-09T08:27:00;96983.25;;;10.94;100.00
39243;BME280;29823;47.404;8.566;2023-04-09T08:29:28;96986.16;;;11.65;92.66
39243;BME280;29823;47.404;8.566;2023-04-09T08:31:57;96984.38;;;12.29;79.91
39243;BME280;29823;47.404;8.566;2023-04-09T08:34:25;96983.00;;;12.61;79.22
39243;BME280;29823;47.404;8.566;2023-04-09T08:36:54;96987.94;;;12.64;84.23
39243;BME280;29823;47.404;8.566;2023-04-09T08:39:22;96986.31;;;13.60;71.56
39243;BME280;29823;47.404;8.566;2023-04-09T08:41:51;96986.78;;;14.41;65.32
39243;BME280;29823;47.404;8.566;2023-04-09T08:44:19;97002.41;;;13.60;68.83
39243;BME280;29823;47.404;8.566;2023-04-09T08:46:47;96996.56;;;14.64;64.04
39243;BME280;29823;47.404;8.566;2023-04-09T08:49:15;96997.75;;;13.95;65.57
39243;BME280;29823;47.404;8.566;2023-04-09T08:51:45;96996.88;;;14.34;64.88
39243;BME280;29823;47.404;8.566;2023-04-09T08:54:15;96999.59;;;14.67;62.52
39243;BME280;29823;47.404;8.566;2023-04-09T08:56:45;97001.09;;;14.30;62.48
39243;BME280;29823;47.404;8.566;2023-04-09T08:59:14;96998.84;;;14.55;62.61
39243;BME280;29823;47.404;8.566;2023-04-09T09:01:43;96992.16;;;13.57;63.84
39243;BME280;29823;47.404;8.566;2023-04-09T09:04:12;97002.25;;;12.93;75.27
39243;BME280;29823;47.404;8.566;2023-04-09T09:06:40;97011.75;;;14.86;61.25
39243;BME280;29823;47.404;8.566;2023-04-09T09:09:09;97005.91;;;14.00;62.82
39243;BME280;29823;47.404;8.566;2023-04-09T09:11:39;97012.97;;;14.18;64.58
39243;BME280;29823;47.404;8.566;2023-04-09T09:14:08;97005.41;;;14.03;63.78
39243;BME280;29823;47.404;8.566;2023-04-09T09:16:38;97002.09;;;14.57;62.15
39243;BME280;29823;47.404;8.566;2023-04-09T09:19:09;97009.69;;;15.10;60.12
39243;BME280;29823;47.404;8.566;2023-04-09T09:21:54;97019.09;;;14.74;61.44
39243;BME280;29823;47.404;8.566;2023-04-09T09:24:23;97007.31;;;14.31;61.75
39243;BME280;29823;47.404;8.566;2023-04-09T09:26:53;97013.28;;;14.82;59.24
39243;BME280;29823;47.404;8.566;2023-04-09T09:29:21;97010.25;;;14.95;59.91
39243;BME280;29823;47.404;8.566;2023-04-09T09:31:50;97002.63;;;16.11;56.81
39243;BME280;29823;47.404;8.566;2023-04-09T09:34:20;97005.50;;;15.78;56.02
39243;BME280;29823;47.404;8.566;2023-04-09T09:36:49;97010.19;;;16.36;54.56
39243;BME280;29823;47.404;8.566;2023-04-09T09:39:17;97007.25;;;15.46;54.25
39243;BME280;29823;47.404;8.566;2023-04-09T09:41:45;96984.06;;;15.88;54.44
39243;BME280;29823;47.404;8.566;2023-04-09T09:47:26;97000.00;;;16.16;51.99
39243;BME280;29823;47.404;8.566;2023-04-09T09:49:55;96999.25;;;15.51;53.64
39243;BME280;29823;47.404;8.566;2023-04-09T09:52:24;96991.38;;;16.41;51.50
39243;BME280;29823;47.404;8.566;2023-04-09T09:54:54;96984.00;;;15.62;54.45
39243;BME280;29823;47.404;8.566;2023-04-09T09:57:24;96991.38;;;16.19;51.19
39243;BME280;29823;47.404;8.566;2023-04-09T09:59:57;97000.44;;;17.34;50.63
39243;BME280;29823;47.404;8.566;2023-04-09T10:02:31;96989.31;;;15.78;53.47
39243;BME280;29823;47.404;8.566;2023-04-09T10:05:05;96990.22;;;16.37;52.29
39243;BME280;29823;47.404;8.566;2023-04-09T10:07:35;96994.06;;;16.41;52.84
39243;BME280;29823;47.404;8.566;2023-04-09T10:10:05;96990.16;;;17.88;48.66
39243;BME280;29823;47.404;8.566;2023-04-09T10:12:33;96997.41;;;17.67;48.89
39243;BME280;29823;47.404;8.566;2023-04-09T10:15:02;96979.81;;;17.18;49.19
39243;BME280;29823;47.404;8.566;2023-04-09T10:17:33;96980.59;;;18.57;45.62
39243;BME280;29823;47.404;8.566;2023-04-09T10:20:09;96983.16;;;17.35;48.94
39243;BME280;29823;47.404;8.566;2023-04-09T10:22:38;96973.16;;;18.02;48.42
39243;BME280;29823;47.404;8.566;2023-04-09T10:25:07;96965.28;;;17.86;48.79
39243;BME280;29823;47.404;8.566;2023-04-09T10:27:35;96970.03;;;18.45;45.84
39243;BME280;29823;47.404;8.566;2023-04-09T10:30:04;96960.50;;;18.18;47.23
39243;BME280;29823;47.404;8.566;2023-04-09T10:32:37;96969.09;;;18.00;46.67
39243;BME280;29823;47.404;8.566;2023-04-09T10:35:08;96965.66;;;19.19;44.29
39243;BME280;29823;47.404;8.566;2023-04-09T10:37:36;96962.84;;;19.64;42.27
39243;BME280;29823;47.404;8.566;2023-04-09T10:40:04;96957.03;;;18.37;44.32
39243;BME280;29823;47.404;8.566;2023-04-09T10:42:36;96966.34;;;17.75;45.94
39243;BME280;29823;47.404;8.566;2023-04-09T10:45:08;96956.13;;;17.35;47.32
39243;BME280;29823;47.404;8.566;2023-04-09T10:47:39;96944.56;;;18.61;43.24
39243;BME280;29823;47.404;8.566;2023-04-09T10:50:19;96957.53;;;18.24;46.30
39243;BME280;29823;47.404;8.566;2023-04-09T10:52:51;96950.66;;;17.82;46.08
39243;BME280;29823;47.404;8.566;2023-04-09T10:55:35;96954.56;;;18.96;44.25
39243;BME280;29823;47.404;8.566;2023-04-09T10:58:04;96948.16;;;20.29;40.80
39243;BME280;29823;47.404;8.566;2023-04-09T11:00:37;96944.75;;;19.40;43.12
39243;BME280;29823;47.404;8.566;2023-04-09T11:03:22;96950.84;;;21.29;39.85
39243;BME280;29823;47.404;8.566;2023-04-09T11:05:53;96942.06;;;19.98;40.51
39243;BME280;29823;47.404;8.566;2023-04-09T11:08:22;96936.97;;;18.98;43.55
39243;BME280;29823;47.404;8.566;2023-04-09T11:10:49;96943.13;;;20.02;40.13
39243;BME280;29823;47.404;8.566;2023-04-09T11:13:22;96935.50;;;20.81;39.31
39243;BME280;29823;47.404;8.566;2023-04-09T11:15:50;96938.63;;;18.54;43.50
39243;BME280;29823;47.404;8.566;2023-04-09T11:18:23;96929.00;;;20.10;41.37
39243;BME280;29823;47.404;8.566;2023-04-09T11:20:53;96932.72;;;22.09;39.31
39243;BME280;29823;47.404;8.566;2023-04-09T11:23:22;96929.47;;;21.65;36.32
39243;BME280;29823;47.404;8.566;2023-04-09T11:25:51;96927.47;;;21.52;39.16
39243;BME280;29823;47.404;8.566;2023-04-09T11:28:19;96934.91;;;21.65;37.26
39243;BME280;29823;47.404;8.566;2023-04-09T11:30:49;96934.84;;;21.23;36.98
39243;BME280;29823;47.404;8.566;2023-04-09T11:33:17;96925.94;;;22.06;35.83
39243;BME280;29823;47.404;8.566;2023-04-09T11:35:47;96930.09;;;23.23;34.67
39243;BME280;29823;47.404;8.566;2023-04-09T11:38:15;96917.47;;;23.27;34.41
39243;BME280;29823;47.404;8.566;2023-04-09T11:40:43;96930.53;;;20.93;37.90
39243;BME280;29823;47.404;8.566;2023-04-09T11:43:14;96930.97;;;18.11;42.59
39243;BME280;29823;47.404;8.566;2023-04-09T11:45:43;96922.94;;;15.51;47.03
39243;BME280;29823;47.404;8.566;2023-04-09T11:48:13;96929.59;;;17.27;45.88
39243;BME280;29823;47.404;8.566;2023-04-09T11:50:41;96932.03;;;19.10;41.71
39243;BME280;29823;47.404;8.566;2023-04-09T11:53:20;96927.44;;;20.71;38.33
39243;BME280;29823;47.404;8.566;2023-04-09T11:55:49;96926.41;;;18.92;41.29
39243;BME280;29823;47.404;8.566;2023-04-09T11:58:21;96921.47;;;19.92;39.09
39243;BME280;29823;47.404;8.566;2023-04-09T12:00:51;96918.13;;;20.10;38.17
39243;BME280;29823;47.404;8.566;2023-04-09T12:03:26;96905.72;;;22.49;34.04
39243;BME280;29823;47.404;8.566;2023-04-09T12:05:55;96919.78;;;22.56;35.68
39243;BME280;29823;47.404;8.566;2023-04-09T12:08:26;96921.69;;;19.37;38.65
39243;BME280;29823;47.404;8.566;2023-04-09T12:10:54;96916.94;;;20.93;36.72
39243;BME280;29823;47.404;8.566;2023-04-09T12:13:31;96916.66;;;20.95;36.38
39243;BME280;29823;47.404;8.566;2023-04-09T12:15:59;96912.25;;;20.99;36.29
39243;BME280;29823;47.404;8.566;2023-04-09T12:18:27;96901.66;;;22.28;34.46
39243;BME280;29823;47.404;8.566;2023-04-09T12:20:55;96917.66;;;21.74;35.03
39243;BME280;29823;47.404;8.566;2023-04-09T12:23:27;96900.31;;;21.70;34.66
39243;BME280;29823;47.404;8.566;2023-04-09T12:25:57;96905.53;;;20.91;36.36
39243;BME280;29823;47.404;8.566;2023-04-09T12:28:27;96906.94;;;22.01;34.71
39243;BME280;29823;47.404;8.566;2023-04-09T12:30:55;96902.56;;;19.72;37.38
39243;BME280;29823;47.404;8.566;2023-04-09T12:33:25;96902.53;;;20.26;37.49
39243;BME280;29823;47.404;8.566;2023-04-09T12:35:53;96903.25;;;20.41;36.29
39243;BME280;29823;47.404;8.566;2023-04-09T12:38:21;96906.16;;;20.83;36.88
39243;BME280;29823;47.404;8.566;2023-04-09T12:40:50;96896.81;;;20.61;36.83
39243;BME280;29823;47.404;8.566;2023-04-09T12:43:18;96907.03;;;20.74;35.98
39243;BME280;29823;47.404;8.566;2023-04-09T12:45:46;96905.94;;;21.97;35.24
39243;BME280;29823;47.404;8.566;2023-04-09T12:48:14;96906.44;;;21.57;34.24
39243;BME280;29823;47.404;8.566;2023-04-09T12:50:42;96900.59;;;23.39;32.77
39243;BME280;29823;47.404;8.566;2023-04-09T12:53:10;96886.72;;;21.23;35.06
39243;BME280;29823;47.404;8.566;2023-04-09T12:55:38;96893.16;;;20.08;36.49
39243;BME280;29823;47.404;8.566;2023-04-09T12:58:09;96887.06;;;19.09;38.52
39243;BME280;29823;47.404;8.566;2023-04-09T13:00:37;96886.34;;;18.59;39.75
39243;BME280;29823;47.404;8.566;2023-04-09T13:03:05;96889.41;;;19.94;36.87
39243;BME280;29823;47.404;8.566;2023-04-09T13:05:33;96889.75;;;19.19;38.26
39243;BME280;29823;47.404;8.566;2023-04-09T13:08:01;96886.06;;;18.80;39.29
39243;BME280;29823;47.404;8.566;2023-04-09T13:10:29;96875.91;;;19.31;38.78
39243;BME280;29823;47.404;8.566;2023-04-09T13:12:58;96877.91;;;18.90;39.08